Time;durP1;ratioP1;P1;durP2;ratioP2;P2;SDS_P1;SDS_P2;PMS_P1;PMS_P2;Temp;Humidity;BMP_temperature;BMP_pressure;BME280_temperature;BME280_humidity;BME280_pressure;Samples;Min_cycle;Max_cycle;Signal;HPM_P1;HPM_P2
2021/03/09 00:00:09;;;;;;;124.35;50.28;;;;;;;-4.43;63.33;94614.99;1758269;80;22116;-62
2021/03/09 00:02:37;;;;;;;69.62;33.73;;;;;;;-4.51;63.85;94613.29;1767730;80;21142;-63
2021/03/09 00:05:07;;;;;;;62.78;31.62;;;;;;;-4.47;64.77;94616.26;1766709;80;21112;-62
2021/03/09 00:07:35;;;;;;;83.80;36.77;;;;;;;-4.42;64.40;94621.33;1764407;80;21120;-62
2021/03/09 00:10:05;;;;;;;80.95;36.60;;;;;;;-4.40;64.60;94619.64;1754222;80;21155;-62
2021/03/09 00:12:34;;;;;;;67.50;31.45;;;;;;;-4.32;64.35;94622.66;1748675;80;22119;-61
2021/03/09 00:15:04;;;;;;;69.87;31.85;;;;;;;-4.29;64.03;94626.75;1761557;80;21214;-62
2021/03/09 00:17:33;;;;;;;65.57;31.45;;;;;;;-4.37;63.52;94618.92;1750775;80;21178;-61
2021/03/09 00:20:02;;;;;;;78.95;38.38;;;;;;;-4.46;63.69;94621.08;1778502;80;21051;-62
2021/03/09 00:22:30;;;;;;;70.67;35.83;;;;;;;-4.50;63.62;94612.16;1759283;80;21512;-61
2021/03/09 00:24:59;;;;;;;56.90;27.85;;;;;;;-4.51;63.52;94612.74;1759866;80;21541;-61
2021/03/09 00:27:27;;;;;;;53.73;27.75;;;;;;;-4.50;63.43;94613.50;1751639;80;21075;-61
2021/03/09 00:29:55;;;;;;;51.20;27.82;;;;;;;-4.47;63.50;94610.89;1769543;80;21266;-61
2021/03/09 00:32:23;;;;;;;53.23;28.70;;;;;;;-4.46;63.26;94610.34;1768426;80;21130;-61
2021/03/09 00:34:52;;;;;;;69.95;32.33;;;;;;;-4.44;63.26;94614.78;1761820;80;21170;-60
2021/03/09 00:37:20;;;;;;;69.42;34.65;;;;;;;-4.44;63.17;94608.84;1753957;80;21875;-61
2021/03/09 00:39:48;;;;;;;65.72;30.95;;;;;;;-4.42;63.30;94607.16;1766716;80;21512;-62
2021/03/09 00:42:17;;;;;;;57.98;30.15;;;;;;;-4.47;63.46;94608.20;1764661;80;21115;-62
2021/03/09 00:44:45;;;;;;;57.58;31.27;;;;;;;-4.48;63.36;94610.69;1755976;80;21160;-61
2021/03/09 00:47:13;;;;;;;44.65;25.45;;;;;;;-4.56;62.98;94604.20;1756840;80;21092;-63
2021/03/09 00:49:42;;;;;;;54.08;26.90;;;;;;;-4.56;63.34;94602.30;1751121;80;22743;-61
2021/03/09 00:52:11;;;;;;;59.53;27.90;;;;;;;-4.48;63.12;94604.53;1754893;80;21065;-62
2021/03/09 00:54:39;;;;;;;50.33;28.40;;;;;;;-4.55;62.62;94608.44;1748714;80;21047;-62
2021/03/09 00:57:08;;;;;;;52.40;29.20;;;;;;;-4.62;62.57;94597.00;1759827;80;21115;-63
2021/03/09 00:59:36;;;;;;;49.93;25.85;;;;;;;-4.55;62.54;94599.04;1773986;80;21439;-61
2021/03/09 01:02:06;;;;;;;41.63;24.30;;;;;;;-4.56;62.21;94594.25;1762387;80;21362;-62
2021/03/09 01:04:35;;;;;;;43.87;25.72;;;;;;;-4.61;62.23;94600.47;1759604;80;21219;-62
2021/03/09 01:07:03;;;;;;;48.13;26.42;;;;;;;-4.63;62.58;94596.03;1761586;80;22018;-61
2021/03/09 01:09:32;;;;;;;51.37;27.40;;;;;;;-4.63;62.39;94596.03;1751563;80;21080;-62
2021/03/09 01:12:01;;;;;;;43.85;23.10;;;;;;;-4.68;61.98;94586.35;1755882;80;21064;-61
2021/03/09 01:14:29;;;;;;;42.62;21.68;;;;;;;-4.72;61.96;94598.14;1753774;80;22253;-62
2021/03/09 01:16:57;;;;;;;45.43;25.65;;;;;;;-4.73;62.17;94595.25;1734275;81;21191;-62
2021/03/09 01:19:26;;;;;;;45.73;25.35;;;;;;;-4.70;61.85;94593.19;1759976;80;21143;-62
2021/03/09 01:21:54;;;;;;;45.85;24.52;;;;;;;-4.70;61.55;94594.53;1761515;80;21147;-62
2021/03/09 01:24:23;;;;;;;38.80;21.27;;;;;;;-4.68;61.54;94595.74;1761597;80;21064;-61
2021/03/09 01:26:51;;;;;;;37.70;20.27;;;;;;;-4.64;61.23;94591.80;1751397;80;23470;-61
2021/03/09 01:29:20;;;;;;;47.55;24.10;;;;;;;-4.67;61.01;94588.45;1755174;80;21124;-61
2021/03/09 01:31:49;;;;;;;49.58;25.32;;;;;;;-4.76;60.84;94586.58;1768716;80;21079;-63
2021/03/09 01:34:18;;;;;;;43.63;22.10;;;;;;;-4.87;60.58;94589.61;1727295;82;21212;-62
2021/03/09 01:36:46;;;;;;;44.45;23.60;;;;;;;-4.98;61.03;94592.66;1757461;80;21122;-62
2021/03/09 01:39:15;;;;;;;50.00;24.12;;;;;;;-4.97;61.16;94582.91;1755544;80;22204;-62
2021/03/09 01:41:44;;;;;;;43.02;22.17;;;;;;;-4.95;61.03;94587.92;1759685;80;21131;-61
2021/03/09 01:44:13;;;;;;;47.83;23.27;;;;;;;-4.95;60.82;94587.92;1774667;80;21199;-61
2021/03/09 01:46:42;;;;;;;49.05;24.37;;;;;;;-4.93;60.78;94593.12;1766430;80;21143;-61
2021/03/09 01:49:10;;;;;;;43.13;23.38;;;;;;;-4.92;60.36;94593.37;1758172;81;21061;-61
2021/03/09 01:51:39;;;;;;;40.85;20.88;;;;;;;-4.95;60.29;94591.37;1751596;80;23470;-63
2021/03/09 01:54:09;;;;;;;42.73;21.55;;;;;;;-4.99;60.29;94591.87;1762376;80;21059;-61
2021/03/09 01:56:38;;;;;;;47.27;22.77;;;;;;;-5.01;60.09;94593.38;1759957;80;21108;-62
2021/03/09 01:59:06;;;;;;;43.28;23.02;;;;;;;-5.06;59.89;94596.31;1770985;80;21152;-62
2021/03/09 02:01:36;;;;;;;49.15;22.40;;;;;;;-5.13;60.07;94596.17;1722943;81;21117;-62
2021/03/09 02:04:05;;;;;;;55.58;24.15;;;;;;;-5.14;59.99;94590.61;1778689;80;21412;-62
2021/03/09 02:06:36;;;;;;;67.42;27.15;;;;;;;-5.27;60.26;94596.45;1758145;80;21191;-62
2021/03/09 02:09:06;;;;;;;112.52;35.65;;;;;;;-5.31;60.23;94594.45;1769738;80;21097;-62
2021/03/09 02:11:43;;;;;;;108.67;38.25;;;;;;;-5.34;60.63;94591.72;1755438;80;21151;-61
2021/03/09 02:14:44;;;;;;;84.60;29.48;;;;;;;-5.35;60.78;94590.16;1730045;80;21152;-62
2021/03/09 02:17:56;;;;;;;108.20;39.65;;;;;;;-5.33;60.78;94601.31;1724864;82;21368;-62
2021/03/09 02:21:04;;;;;;;81.55;33.65;;;;;;;-5.59;60.20;94591.73;1725113;82;21132;-62
2021/03/09 02:23:52;;;;;;;70.05;30.43;;;;;;;-5.82;61.00;94599.47;1725315;82;21231;-61
2021/03/09 02:26:43;;;;;;;66.67;28.25;;;;;;;-5.85;61.31;94606.28;1783323;80;21052;-61
2021/03/09 02:29:44;;;;;;;54.00;26.57;;;;;;;-5.84;61.46;94607.84;1758016;80;21064;-61
2021/03/09 02:32:21;;;;;;;65.28;27.15;;;;;;;-5.92;61.25;94603.45;1774760;80;21318;-62
2021/03/09 02:34:57;;;;;;;65.72;26.73;;;;;;;-5.92;61.17;94607.47;1757638;80;21282;-61
2021/03/09 02:37:36;;;;;;;68.65;29.57;;;;;;;-5.98;61.09;94604.82;1757640;80;21590;-61
2021/03/09 02:40:09;;;;;;;65.70;26.00;;;;;;;-6.17;61.36;94606.08;1756331;80;21208;-61
2021/03/09 02:42:43;;;;;;;;;;;;;;;-6.29;61.57;94614.21;1764092;80;21084;-62
2021/03/09 02:45:16;;;;;;;58.78;27.10;;;;;;;-6.42;61.79;94610.05;1751735;80;21202;-62
2021/03/09 02:47:46;;;;;;;60.67;26.45;;;;;;;-6.51;62.26;94610.75;1769428;80;21165;-62
2021/03/09 02:50:15;;;;;;;64.30;28.20;;;;;;;-6.51;62.33;94613.43;1759968;80;21127;-61
2021/03/09 02:52:45;;;;;;;65.57;29.05;;;;;;;-6.51;62.55;94610.75;1757063;80;21852;-61
2021/03/09 02:55:14;;;;;;;75.60;30.57;;;;;;;-6.41;62.32;94609.47;1738169;80;21131;-62
2021/03/09 02:57:43;;;;;;;64.53;27.80;;;;;;;-6.33;61.96;94614.66;1777255;80;21429;-61
2021/03/09 03:00:12;;;;;;;95.80;40.78;;;;;;;-6.29;61.77;94611.53;1766304;80;21096;-62
2021/03/09 03:02:41;;;;;;;127.05;53.63;;;;;;;-6.23;61.70;94614.16;1766079;80;21044;-61
2021/03/09 03:05:12;;;;;;;109.00;49.25;;;;;;;-6.32;61.58;94620.80;1758993;80;21674;-61
2021/03/09 03:07:40;;;;;;;99.13;48.23;;;;;;;-6.50;61.89;94623.01;1774096;80;21238;-62
2021/03/09 03:10:17;;;;;;;106.22;50.85;;;;;;;-6.58;62.18;94619.94;1755739;81;21436;-61
2021/03/09 03:12:45;;;;;;;117.17;55.05;;;;;;;-6.55;62.21;94628.61;1769235;80;21151;-61
2021/03/09 03:15:17;;;;;;;84.80;39.13;;;;;;;-6.63;61.64;94631.45;1761645;80;21142;-61
2021/03/09 03:17:45;;;;;;;107.45;46.10;;;;;;;-6.71;61.74;94638.50;1756143;80;21117;-61
2021/03/09 03:20:17;;;;;;;107.90;46.68;;;;;;;-6.72;62.01;94628.16;1756157;80;21278;-61
2021/03/09 03:22:45;;;;;;;103.32;45.43;;;;;;;-6.67;62.21;94634.02;1767858;80;21152;-62
2021/03/09 03:25:14;;;;;;;95.97;41.40;;;;;;;-6.65;62.43;94631.02;1773540;80;21120;-62
2021/03/09 03:27:43;;;;;;;79.47;35.68;;;;;;;-6.77;62.51;94633.19;1763631;80;21187;-61
2021/03/09 03:30:13;;;;;;;85.47;36.98;;;;;;;-6.88;62.94;94641.47;1775570;80;21634;-62
2021/03/09 03:32:42;;;;;;;81.40;38.98;;;;;;;-6.98;63.21;94637.73;1748122;80;21095;-62
2021/03/09 03:35:12;;;;;;;103.53;46.33;;;;;;;-6.94;63.90;94637.48;1716965;82;21204;-61
2021/03/09 03:37:41;;;;;;;108.90;45.33;;;;;;;-6.85;63.68;94636.01;1709852;83;21105;-61
2021/03/09 03:40:16;;;;;;;122.90;49.50;;;;;;;-6.81;63.20;94632.86;1710773;83;21512;-63
2021/03/09 03:42:45;;;;;;;104.63;44.67;;;;;;;-6.78;62.76;94642.87;1694007;83;21238;-64
2021/03/09 03:45:15;;;;;;;122.42;50.40;;;;;;;-6.82;62.96;94645.47;1766591;80;21091;-62
2021/03/09 03:47:44;;;;;;;90.47;40.12;;;;;;;-6.80;62.70;94647.78;1761529;80;21199;-62
2021/03/09 03:50:15;;;;;;;82.12;34.48;;;;;;;-6.72;62.87;94648.22;1760682;80;21199;-63
2021/03/09 03:53:18;;;;;;;78.10;37.13;;;;;;;-6.63;62.39;94654.97;1763097;80;21179;-61
2021/03/09 03:56:03;;;;;;;75.65;35.80;;;;;;;-6.66;62.11;94650.28;1779865;80;21529;-62
2021/03/09 03:58:45;;;;;;;64.47;33.25;;;;;;;-6.65;62.23;94655.88;1731796;81;21072;-63
2021/03/09 04:01:14;;;;;;;69.32;36.35;;;;;;;-6.68;62.40;94655.19;1732737;82;22134;-63
2021/03/09 04:03:43;;;;;;;70.37;33.45;;;;;;;-6.72;62.54;94666.36;1753907;80;21588;-61
2021/03/09 04:06:11;;;;;;;68.07;34.10;;;;;;;-6.71;62.75;94660.47;1759789;80;21072;-61
2021/03/09 04:08:39;;;;;;;89.45;45.33;;;;;;;-6.69;62.67;94663.00;1747816;80;21088;-62
2021/03/09 04:11:08;;;;;;;92.97;45.28;;;;;;;-6.77;62.75;94659.92;1756332;80;21060;-60
2021/03/09 04:13:37;;;;;;;94.15;43.20;;;;;;;-6.75;62.92;94653.67;1764575;80;21375;-61
2021/03/09 04:16:06;;;;;;;72.35;35.68;;;;;;;-6.67;62.98;94658.08;1760046;80;21088;-62
2021/03/09 04:18:35;;;;;;;114.52;53.00;;;;;;;-6.58;62.84;94658.73;1761615;80;21504;-61
2021/03/09 04:21:04;;;;;;;143.90;64.05;;;;;;;-6.68;62.71;94673.15;1766983;80;21086;-62
2021/03/09 04:23:32;;;;;;;182.95;77.58;;;;;;;-6.89;63.08;94666.64;1771292;80;21186;-62
2021/03/09 04:26:01;;;;;;;202.15;82.67;;;;;;;-6.93;63.34;94663.10;1761233;80;21362;-62
2021/03/09 04:28:29;;;;;;;190.32;78.37;;;;;;;-6.87;63.76;94663.07;1764740;80;21458;-61
2021/03/09 04:30:57;;;;;;;179.70;76.45;;;;;;;-6.71;63.69;94663.90;1735997;80;21084;-62
2021/03/09 04:33:27;;;;;;;156.40;66.57;;;;;;;-6.56;63.54;94658.40;1776434;80;21155;-61
2021/03/09 04:35:57;;;;;;;135.22;58.95;;;;;;;-6.39;63.38;94660.19;1757018;80;21084;-61
2021/03/09 04:38:27;;;;;;;103.53;47.78;;;;;;;-6.18;63.03;94654.04;1770752;80;21369;-63
2021/03/09 04:40:55;;;;;;;98.60;48.35;;;;;;;-5.99;62.68;94655.47;1762279;81;21147;-62
2021/03/09 04:43:24;;;;;;;101.85;50.63;;;;;;;-5.75;62.43;94659.84;1768402;80;21119;-62
2021/03/09 04:45:58;;;;;;;93.65;48.75;;;;;;;-5.57;61.97;94665.83;1766909;80;21192;-62
2021/03/09 04:48:26;;;;;;;99.10;48.98;;;;;;;-5.37;61.52;94659.97;1749444;80;21098;-61
2021/03/09 04:51:01;;;;;;;101.05;50.92;;;;;;;-5.19;60.96;94656.57;1777982;80;21406;-62
2021/03/09 04:53:29;;;;;;;104.45;51.80;;;;;;;-5.06;60.31;94662.00;1779528;80;21196;-62
2021/03/09 04:55:58;;;;;;;98.87;53.58;;;;;;;-4.95;59.78;94667.80;1779650;80;21056;-61
2021/03/09 04:58:27;;;;;;;78.78;42.80;;;;;;;-4.85;59.48;94667.81;1753151;80;21132;-63
2021/03/09 05:00:55;;;;;;;78.28;42.35;;;;;;;-4.79;58.96;94663.73;1758152;80;21713;-62
2021/03/09 05:03:24;;;;;;;71.90;38.13;;;;;;;-4.96;58.68;94671.61;1769788;80;23544;-61
2021/03/09 05:05:53;;;;;;;103.97;57.08;;;;;;;-5.20;59.06;94687.16;1748047;80;21119;-62
2021/03/09 05:08:21;;;;;;;94.37;52.13;;;;;;;-5.27;59.68;94685.67;1752470;80;21138;-61
2021/03/09 05:10:49;;;;;;;84.52;46.42;;;;;;;-5.16;59.64;94677.31;1726729;82;21060;-62
2021/03/09 05:13:18;;;;;;;104.15;53.17;;;;;;;-5.04;59.65;94676.62;1762544;80;21090;-62
2021/03/09 05:15:46;;;;;;;101.30;56.80;;;;;;;-4.92;59.53;94677.85;1761200;80;21365;-62
2021/03/09 05:18:15;;;;;;;102.97;57.03;;;;;;;-4.84;59.16;94676.86;1766910;80;21162;-61
2021/03/09 05:20:44;;;;;;;102.38;57.27;;;;;;;-4.82;59.36;94677.86;1762290;80;21065;-62
2021/03/09 05:23:13;;;;;;;92.82;53.25;;;;;;;-4.77;59.32;94674.89;1766016;80;21131;-59
2021/03/09 05:25:41;;;;;;;88.05;47.45;;;;;;;-4.68;59.00;94679.47;1756815;80;21496;-63
2021/03/09 05:28:11;;;;;;;87.35;48.42;;;;;;;-4.61;59.08;94682.31;1757488;80;21256;-62
2021/03/09 05:30:39;;;;;;;83.47;47.48;;;;;;;-4.46;58.78;94684.91;1734077;81;21076;-62
2021/03/09 05:33:07;;;;;;;102.55;50.75;;;;;;;-4.43;58.41;94684.78;1734018;82;21696;-61
2021/03/09 05:35:36;;;;;;;93.10;50.52;;;;;;;-4.41;58.47;94682.52;1739170;82;21127;-62
2021/03/09 05:38:04;;;;;;;90.17;47.93;;;;;;;-4.35;58.21;94683.77;1756635;80;21140;-61
2021/03/09 05:40:34;;;;;;;95.53;51.23;;;;;;;-4.41;58.31;94677.14;1755906;80;21229;-62
2021/03/09 05:43:04;;;;;;;113.25;60.90;;;;;;;-4.36;58.26;94679.53;1753616;80;21179;-62
2021/03/09 05:45:33;;;;;;;115.80;64.60;;;;;;;-4.32;58.36;94678.48;1698167;82;21207;-62
2021/03/09 05:48:03;;;;;;;118.97;62.78;;;;;;;-4.16;57.99;94685.09;1730783;81;21084;-62
2021/03/09 05:50:33;;;;;;;111.12;60.38;;;;;;;-4.07;57.50;94682.97;1743304;81;21085;-61
2021/03/09 05:53:01;;;;;;;122.80;68.62;;;;;;;-4.04;57.27;94681.67;1722806;82;21194;-61
2021/03/09 05:55:29;;;;;;;128.20;69.53;;;;;;;-4.06;57.20;94687.97;1725358;82;21097;-62
2021/03/09 05:57:59;;;;;;;80.72;48.00;;;;;;;-4.03;57.23;94684.56;1753408;80;21104;-61
2021/03/09 06:00:27;;;;;;;83.60;48.00;;;;;;;-4.03;56.97;94686.48;1727813;82;21620;-62
2021/03/09 06:02:55;;;;;;;93.10;54.55;;;;;;;-4.22;56.91;94687.86;1754526;80;21163;-62
2021/03/09 06:05:24;;;;;;;105.92;61.35;;;;;;;-4.44;57.10;94692.04;1754298;80;21341;-63
2021/03/09 06:07:55;;;;;;;113.05;59.55;;;;;;;-4.50;57.67;94700.73;1776914;80;21080;-62
2021/03/09 06:10:24;;;;;;;99.00;53.68;;;;;;;-4.51;57.74;94701.86;1730322;81;21135;-62
2021/03/09 06:12:53;;;;;;;194.93;72.58;;;;;;;-4.71;58.05;94700.30;1730564;82;21622;-62
2021/03/09 06:15:21;;;;;;;272.95;93.25;;;;;;;-4.89;58.59;94697.80;1705559;83;21088;-62
2021/03/09 06:17:56;;;;;;;179.03;73.28;;;;;;;-5.05;59.08;94698.41;1730514;81;21201;-62
2021/03/09 06:20:27;;;;;;;151.45;70.72;;;;;;;-5.18;59.44;94709.81;1700900;83;21155;-61
2021/03/09 06:22:58;;;;;;;142.72;67.78;;;;;;;-5.32;59.98;94705.47;1721019;82;21128;-63
2021/03/09 06:25:32;;;;;;;170.85;74.85;;;;;;;-5.30;60.54;94708.58;1716869;82;21135;-60
2021/03/09 06:28:06;;;;;;;216.82;89.17;;;;;;;-5.10;60.96;94713.44;1752501;80;21154;-61
2021/03/09 06:30:37;;;;;;;203.20;83.67;;;;;;;-4.94;60.52;94714.18;1741780;81;21206;-61
2021/03/09 06:33:06;;;;;;;178.23;79.87;;;;;;;-4.82;60.29;94712.73;1745019;81;21646;-62
2021/03/09 06:35:42;;;;;;;107.45;48.25;;;;;;;-4.74;60.54;94711.19;1768184;80;21311;-61
2021/03/09 06:38:28;;;;;;;204.60;93.40;;;;;;;-4.44;60.14;94721.56;1764224;80;21175;-61
2021/03/09 06:41:17;;;;;;;168.57;74.03;;;;;;;-4.15;59.55;94718.31;1716182;82;21649;-59
2021/03/09 06:44:01;;;;;;;120.77;58.55;;;;;;;-3.98;59.44;94720.55;1723445;82;21383;-62
2021/03/09 06:46:29;;;;;;;125.62;58.95;;;;;;;-3.77;59.18;94730.34;1718593;82;21144;-62
2021/03/09 06:49:04;;;;;;;106.20;53.30;;;;;;;-3.62;58.98;94733.48;1728623;81;21088;-62
2021/03/09 06:51:36;;;;;;;127.90;55.30;;;;;;;-3.66;59.12;94733.20;1726008;81;21183;-62
2021/03/09 06:54:10;;;;;;;108.20;56.53;;;;;;;-3.77;59.23;94730.89;1724323;82;21678;-60
2021/03/09 06:56:42;;;;;;;128.10;57.35;;;;;;;-3.88;59.63;94735.31;1728239;82;22152;-58
2021/03/09 06:59:27;;;;;;;245.97;109.60;;;;;;;-3.99;59.67;94731.64;1721322;82;21082;-61
2021/03/09 07:02:14;;;;;;;174.85;92.53;;;;;;;-4.00;60.00;94732.78;1839438;76;22323;-61
2021/03/09 07:04:47;;;;;;;161.43;83.90;;;;;;;-4.04;60.00;94734.63;1810876;77;21761;-63
2021/03/09 07:07:28;;;;;;;144.23;75.17;;;;;;;-3.98;59.86;94726.48;1808572;79;21185;-59
2021/03/09 07:10:00;;;;;;;160.65;81.92;;;;;;;-3.86;59.77;94729.77;1786449;77;21143;-62
2021/03/09 07:12:28;;;;;;;72.78;41.18;;;;;;;-3.62;59.82;94730.01;1781740;79;21124;-62
2021/03/09 07:14:57;;;;;;;73.85;42.70;;;;;;;-3.37;59.52;94723.36;1785783;79;21202;-62
2021/03/09 07:17:29;;;;;;;85.20;50.10;;;;;;;-3.09;59.30;94730.52;1786088;79;21024;-63
2021/03/09 07:19:58;;;;;;;63.28;36.23;;;;;;;-2.74;58.77;94724.30;1801385;77;22611;-60
2021/03/09 07:22:28;;;;;;;41.33;25.37;;;;;;;-2.26;58.41;94723.41;1790631;77;21182;-63
2021/03/09 07:25:14;;;;;;;49.15;30.55;;;;;;;-1.82;57.13;94718.90;1790225;77;21193;-60
2021/03/09 07:27:54;;;;;;;50.50;30.80;;;;;;;-1.52;56.83;94724.41;1797633;77;21202;-63
2021/03/09 07:30:24;;;;;;;322.42;43.73;;;;;;;-1.14;55.96;94725.91;1804447;78;21094;-62
2021/03/09 07:32:57;;;;;;;42.67;26.52;;;;;;;-0.86;55.27;94725.55;1786188;77;21362;-59
2021/03/09 07:35:31;;;;;;;28.77;19.65;;;;;;;-0.66;54.73;94728.19;1792022;79;21142;-59
2021/03/09 07:37:57;;;;;;;40.58;24.47;;;;;;;-0.42;54.13;94721.38;1807115;79;21188;-60
2021/03/09 07:40:28;;;;;;;55.38;33.78;;;;;;;-0.34;53.63;94724.31;1800478;79;21543;-61
2021/03/09 07:42:57;;;;;;;42.48;25.92;;;;;;;-0.17;53.59;94728.47;1819001;77;21184;-62
2021/03/09 07:45:33;;;;;;;54.30;32.48;;;;;;;-0.04;53.57;94728.91;1760426;79;21288;-60
2021/03/09 07:48:07;;;;;;;60.48;35.60;;;;;;;0.03;53.31;94721.00;1761546;79;21217;-59
2021/03/09 07:50:44;;;;;;;70.17;40.30;;;;;;;0.06;53.26;94720.83;1766777;79;21182;-60
2021/03/09 07:53:21;;;;;;;59.27;34.10;;;;;;;0.16;53.25;94719.51;1764225;79;21498;-61
2021/03/09 07:55:52;;;;;;;62.27;39.20;;;;;;;0.32;52.84;94721.30;1763689;81;21162;-60
2021/03/09 07:58:26;;;;;;;26.82;16.73;;;;;;;0.38;53.11;94715.70;1755222;81;21202;-64
2021/03/09 08:01:00;;;;;;;22.62;15.60;;;;;;;0.59;52.75;94715.73;1758522;80;21154;-58
2021/03/09 08:03:39;;;;;;;32.67;23.87;;;;;;;0.73;52.30;94713.06;1753939;81;21221;-59
2021/03/09 08:06:14;;;;;;;26.70;19.30;;;;;;;0.93;52.32;94708.81;1750860;80;21229;-59
2021/03/09 08:08:50;;;;;;;21.33;16.60;;;;;;;1.15;51.97;94713.66;1750280;81;21169;-58
2021/03/09 08:11:26;;;;;;;25.92;13.98;;;;;;;1.34;51.38;94714.61;1747375;81;21268;-58
2021/03/09 08:14:11;;;;;;;15.80;11.83;;;;;;;1.47;50.98;94706.27;1754383;81;21653;-62
2021/03/09 08:16:42;;;;;;;18.23;12.78;;;;;;;1.68;50.86;94709.69;1755045;81;21217;-60
2021/03/09 08:19:38;;;;;;;11.55;10.00;;;;;;;1.90;49.70;94713.88;1745846;81;21226;-60
2021/03/09 08:22:07;;;;;;;10.72;8.90;;;;;;;2.02;48.95;94706.11;1746649;80;21169;-65
2021/03/09 08:24:46;;;;;;;10.68;8.78;;;;;;;2.14;48.16;94702.18;1747925;81;22107;-61
2021/03/09 08:27:31;;;;;;;15.95;9.75;;;;;;;2.23;48.08;94694.38;1752639;81;21225;-62
2021/03/09 08:30:25;;;;;;;13.65;9.98;;;;;;;2.33;47.23;94695.67;1752383;81;21074;-66
2021/03/09 08:32:52;;;;;;;15.98;10.98;;;;;;;2.26;46.90;94693.58;1751890;81;21184;-63
2021/03/09 08:35:29;;;;;;;15.23;12.47;;;;;;;2.24;46.50;94687.78;1721303;81;21158;-63
2021/03/09 08:38:01;;;;;;;22.93;17.45;;;;;;;2.25;46.82;94685.25;1750893;80;21200;-60
2021/03/09 08:40:29;;;;;;;15.40;12.37;;;;;;;2.36;47.33;94679.95;1707677;83;21138;-64
2021/03/09 08:43:09;;;;;;;12.65;9.30;;;;;;;2.60;47.41;94676.91;1726767;80;21578;-66
2021/03/09 08:45:43;;;;;;;35.63;22.25;;;;;;;2.74;46.22;94668.67;1701585;83;21254;-63
2021/03/09 08:48:13;;;;;;;16.45;13.50;;;;;;;2.87;45.57;94669.75;1707011;83;21706;-63
2021/03/09 08:50:47;;;;;;;13.18;9.38;;;;;;;3.02;45.84;94665.14;1702708;82;21327;-66
2021/03/09 08:53:33;;;;;;;7.92;7.12;;;;;;;3.11;44.88;94672.84;1689777;84;21108;-59
2021/03/09 08:56:05;;;;;;;18.82;15.43;;;;;;;3.27;44.24;94677.17;1708382;83;21513;-58
2021/03/09 08:58:33;;;;;;;9.23;7.97;;;;;;;3.36;43.63;94677.45;1712588;83;21650;-61
2021/03/09 09:01:02;;;;;;;11.18;7.65;;;;;;;3.46;44.00;94672.52;1688578;83;21163;-62
2021/03/09 09:03:35;;;;;;;13.18;10.18;;;;;;;3.58;43.70;94666.77;1684968;83;22627;-60
2021/03/09 09:06:06;;;;;;;;;;;;;;;3.63;44.12;94664.95;1711205;83;21265;-60
2021/03/09 09:08:34;;;;;;;48.83;33.25;;;;;;;3.77;43.90;94659.95;1711099;83;20364;-61
2021/03/09 09:11:02;;;;;;;17.62;11.75;;;;;;;3.94;44.48;94661.12;1701171;83;21234;-59
2021/03/09 09:13:32;;;;;;;8.80;7.90;;;;;;;4.00;41.18;94664.14;1704202;83;21171;-60
2021/03/09 09:16:01;;;;;;;8.08;7.28;;;;;;;3.93;40.64;94656.07;1699596;83;22744;-62
2021/03/09 09:18:30;;;;;;;12.95;9.28;;;;;;;3.84;39.64;94662.00;1706771;83;21234;-60
2021/03/09 09:20:58;;;;;;;8.18;7.25;;;;;;;3.87;41.07;94655.73;1717749;82;22358;-59
2021/03/09 09:23:28;;;;;;;8.68;6.55;;;;;;;4.06;40.49;94651.64;1665716;84;21631;-63
2021/03/09 09:26:00;;;;;;;5.80;5.40;;;;;;;4.30;39.98;94655.42;1672454;84;21579;-59
2021/03/09 09:28:33;;;;;;;8.90;6.10;;;;;;;4.47;38.09;94654.41;1705212;82;21287;-60
2021/03/09 09:31:15;;;;;;;6.60;6.00;;;;;;;4.48;36.64;94650.50;1706931;83;21658;-59
2021/03/09 09:33:52;;;;;;;7.12;5.80;;;;;;;4.65;37.53;94659.02;1693352;82;21229;-60
2021/03/09 09:36:23;;;;;;;8.15;7.08;;;;;;;4.86;37.16;94640.20;1708072;82;21207;-58
2021/03/09 09:38:53;;;;;;;8.88;8.08;;;;;;;5.00;37.60;94643.47;1689389;83;21197;-60
2021/03/09 09:41:24;;;;;;;9.28;7.35;;;;;;;5.15;37.85;94640.70;1710163;83;21436;-59
2021/03/09 09:43:54;;;;;;;8.53;7.22;;;;;;;5.37;37.40;94637.78;1702990;83;21569;-56
2021/03/09 09:46:23;;;;;;;6.22;5.67;;;;;;;5.62;37.50;94641.61;1690485;83;22272;-59
2021/03/09 09:48:52;;;;;;;6.15;5.62;;;;;;;5.88;36.45;94634.53;1690387;83;21187;-59
2021/03/09 09:51:23;;;;;;;10.58;7.67;;;;;;;6.16;35.83;94642.17;1711329;83;21101;-60
2021/03/09 09:53:52;;;;;;;18.27;12.75;;;;;;;6.57;36.22;94642.46;1687243;83;21307;-59
2021/03/09 09:56:24;;;;;;;8.85;7.70;;;;;;;7.07;34.86;94645.00;1702111;83;21190;-59
2021/03/09 09:58:57;;;;;;;11.50;7.70;;;;;;;7.57;33.31;94650.80;1705668;83;21191;-59
2021/03/09 10:01:38;;;;;;;8.75;5.78;;;;;;;8.00;34.10;94661.58;1705963;83;21127;-60
2021/03/09 10:04:10;;;;;;;4.03;3.70;;;;;;;8.38;33.21;94659.77;1697877;83;21191;-60
2021/03/09 10:06:48;;;;;;;6.15;4.35;;;;;;;8.65;31.39;94660.13;1682308;83;22793;-61
2021/03/09 10:09:24;;;;;;;5.45;4.65;;;;;;;8.76;31.27;94663.34;1710023;83;21647;-60
2021/03/09 10:11:57;;;;;;;4.80;3.70;;;;;;;8.89;31.59;94666.26;1710344;83;21194;-60
2021/03/09 10:14:31;;;;;;;3.98;3.50;;;;;;;9.26;30.44;94655.89;1698997;83;21242;-63
2021/03/09 10:17:00;;;;;;;4.53;3.60;;;;;;;9.54;29.44;94656.95;1708534;83;21131;-62
2021/03/09 10:19:38;;;;;;;6.00;4.30;;;;;;;9.76;29.31;94641.32;1719598;82;21279;-60
2021/03/09 10:22:21;;;;;;;6.15;4.75;;;;;;;10.20;29.20;94642.93;1709346;83;21233;-59
2021/03/09 10:24:50;;;;;;;5.87;4.28;;;;;;;10.71;29.09;94651.08;1699193;83;21192;-61
2021/03/09 10:27:24;;;;;;;5.03;4.17;;;;;;;10.92;27.26;94648.27;1710514;83;21670;-59
2021/03/09 10:29:56;;;;;;;4.35;3.62;;;;;;;10.78;27.37;94653.70;1639908;83;21188;-59
2021/03/09 10:32:24;;;;;;;4.17;3.27;;;;;;;10.96;27.22;94655.18;1695395;83;21804;-59
2021/03/09 10:34:54;;;;;;;4.62;3.77;;;;;;;11.11;27.37;94651.27;1710594;83;21415;-59
2021/03/09 10:37:36;;;;;;;6.65;4.37;;;;;;;11.16;27.46;94652.83;1706312;83;21183;-58
2021/03/09 10:40:07;;;;;;;6.00;4.35;;;;;;;11.47;27.65;94648.05;1697909;83;21203;-60
2021/03/09 10:42:44;;;;;;;4.95;3.75;;;;;;;11.76;29.31;94641.58;1702038;83;21237;-61
2021/03/09 10:45:24;;;;;;;5.90;3.75;;;;;;;12.09;28.90;94642.51;1701071;83;22311;-58
2021/03/09 10:48:01;;;;;;;6.67;5.05;;;;;;;12.54;28.35;94639.75;1702100;83;21636;-60
2021/03/09 10:50:40;;;;;;;3.60;3.30;;;;;;;12.92;26.47;94641.36;1709755;83;21183;-60
2021/03/09 10:53:09;;;;;;;4.08;3.00;;;;;;;12.83;25.29;94637.23;1711390;83;21148;-60
2021/03/09 10:55:38;;;;;;;8.23;5.97;;;;;;;12.88;25.22;94630.47;1685805;83;21127;-60
2021/03/09 10:58:07;;;;;;;5.47;4.30;;;;;;;13.09;26.40;94627.37;1708780;83;21286;-59
2021/03/09 11:00:35;;;;;;;6.50;4.40;;;;;;;13.53;26.92;94625.64;1710431;83;22534;-64
2021/03/09 11:03:05;;;;;;;5.45;3.20;;;;;;;13.99;26.09;94631.81;1713526;82;21222;-61
2021/03/09 11:05:33;;;;;;;5.72;3.60;;;;;;;14.14;26.14;94621.56;1758519;80;21146;-62
2021/03/09 11:08:02;;;;;;;5.40;3.47;;;;;;;14.42;26.32;94616.59;1759122;79;21106;-60
2021/03/09 11:10:31;;;;;;;8.50;6.58;;;;;;;14.75;24.97;94609.05;1756106;80;21213;-61
2021/03/09 11:13:00;;;;;;;8.53;6.35;;;;;;;14.99;23.25;94600.02;1755310;79;21125;-60
2021/03/09 11:15:30;;;;;;;8.40;6.53;;;;;;;14.87;24.42;94599.70;1796975;79;21178;-60
2021/03/09 11:17:59;;;;;;;12.78;8.55;;;;;;;14.53;24.79;94597.58;1756751;81;21169;-60
2021/03/09 11:20:27;;;;;;;16.85;8.13;;;;;;;14.33;24.61;94589.02;1737781;81;21657;-62
2021/03/09 11:22:58;;;;;;;9.33;4.67;;;;;;;14.25;25.17;94588.62;1727100;83;22378;-61
2021/03/09 11:25:27;;;;;;;10.03;6.35;;;;;;;14.50;23.97;94586.69;1763107;81;21188;-60
2021/03/09 11:27:55;;;;;;;16.05;5.85;;;;;;;14.68;23.79;94586.51;1783991;79;21614;-61
2021/03/09 11:30:24;;;;;;;9.75;5.22;;;;;;;14.42;24.00;94584.16;1748033;81;21126;-61
2021/03/09 11:32:52;;;;;;;7.25;5.22;;;;;;;13.83;25.08;94585.84;1737419;81;21420;-61
2021/03/09 11:35:21;;;;;;;8.05;4.85;;;;;;;13.22;24.22;94586.48;1745129;81;22023;-58
2021/03/09 11:37:49;;;;;;;12.23;6.60;;;;;;;12.84;25.99;94584.92;1762397;81;21181;-61
2021/03/09 11:40:18;;;;;;;5.12;3.87;;;;;;;12.58;26.00;94584.56;1781060;80;21444;-60
2021/03/09 11:42:47;;;;;;;3.98;3.08;;;;;;;12.15;26.04;94587.52;1780181;80;21172;-60